Latest Weather Observations for Pirlangimpi

IDD60901

Issued at 2:41 pm CST Sunday 30 April 2017 (issued every 10 minutes, with the page automatically refreshed every 10 minutes)

About weather observations | Map of Darwin area stations | Latest observations for Darwin area | Other Formats
Station Details ID: 014142 Name: PIRLANGIMPI AIRPORT Lat: -11.40 Lon: 130.42 Height: 18.3 m
Data from the previous 72 hours. | See also: Recent months at Pirlangimpi
Date/Time
CST
Temp
°C
App
Temp
°C
Dew
Point
°C
Rel
Hum
%
Delta-T
°C
Wind Press
QNH
hPa
Press
MSL
hPa
Rain since
9am
mm
Dir  Spd
km/h
Gust
km/h
Spd
kts
Gust
kts
30/02:30pm 30.5 34.3 22.4 62 5.5 S 6 11 3 6 1010.8 1010.7 -
30/02:00pm 32.4 35.8 21.6 53 7.3 NE 6 11 3 6 1011.0 1010.9 -
30/01:30pm 33.0 36.1 22.1 52 7.4 ENE 9 15 5 8 1011.1 1011.0 -
30/01:00pm 31.2 33.9 22.2 58 6.1 ESE 11 19 6 10 1011.6 1011.5 -
30/12:30pm 31.3 33.5 21.2 55 6.8 ENE 11 19 6 10 1012.1 1012.0 -
30/12:00pm 30.0 32.2 21.1 59 5.9 E 11 19 6 10 1012.5 1012.4 -
30/11:30am 30.3 32.6 21.4 59 6.0 E 11 19 6 10 1012.9 1012.8 -
30/11:00am 30.2 31.4 20.7 56 6.3 E 15 24 8 13 1013.2 1013.1 -
30/10:30am 29.7 30.8 20.5 57 6.1 E 15 24 8 13 1013.6 1013.5 -
30/10:00am 29.4 31.3 21.4 62 5.4 E 13 24 7 13 1013.6 1013.5 -
30/09:30am 28.5 30.7 21.8 67 4.5 E 13 19 7 10 1013.6 1013.5 -
30/09:00am 27.8 31.8 22.7 74 3.5 E 6 15 3 8 1013.6 1013.5 -
30/08:30am 26.2 30.2 22.7 81 2.4 ESE 6 9 3 5 1013.5 1013.4 -
30/07:30am 23.1 26.4 21.9 93 0.8 E 7 - 4 - - 1013.0 -
30/06:30am 21.6 25.5 20.4 93 0.8 CALM 0 0 0 0 1012.7 1012.6 -
30/06:00am 21.7 25.7 20.5 93 0.8 CALM 0 0 0 0 1012.6 1012.5 -
30/05:30am 21.9 26.0 20.7 93 0.8 CALM 0 0 0 0 1012.5 1012.4 -
30/05:00am 21.8 25.8 20.6 93 0.8 CALM 0 0 0 0 1012.6 1012.5 -
30/04:30am 21.9 26.0 20.7 93 0.8 CALM 0 0 0 0 1012.4 1012.3 -
30/04:00am 21.9 26.0 20.7 93 0.8 CALM 0 0 0 0 1012.0 1011.9 -
30/03:30am 22.0 26.0 20.5 91 1.0 CALM 0 2 0 1 1011.7 1011.6 -
30/03:00am 22.2 25.8 20.5 90 1.1 E 2 4 1 2 1011.6 1011.5 0.0
30/02:30am 22.6 26.3 20.7 89 1.2 E 2 6 1 3 1011.8 1011.7 -
30/02:00am 23.0 26.5 20.3 85 1.7 ENE 2 6 1 3 1011.8 1011.7 -
30/01:30am 23.4 26.2 20.5 84 1.9 E 6 7 3 4 1011.9 1011.8 -
30/01:00am 23.4 26.2 20.5 84 1.9 ESE 6 7 3 4 1012.2 1012.1 -
30/12:30am 23.4 26.2 20.5 84 1.9 E 6 7 3 4 1012.3 1012.2 -
30/12:00am 23.4 26.3 20.7 85 1.8 E 6 7 3 4 1012.7 1012.6 -
 
Date/Time
CST
Temp
°C
App
Temp
°C
Dew
Point
°C
Rel
Hum
%
Delta-T
°C
Wind Press
QNH
hPa
Press
MSL
hPa
Rain since
9am
mm
Dir  Spd
km/h
Gust
km/h
Spd
kts
Gust
kts
29/11:30pm 23.5 26.6 20.2 82 2.1 E 4 6 2 3 1012.8 1012.7 -
29/11:00pm 23.7 27.0 20.8 84 1.9 ESE 4 4 2 2 1012.9 1012.8 -
29/10:30pm 24.0 27.5 20.3 80 2.4 SE 2 4 1 2 1013.0 1012.9 -
29/10:00pm 24.3 27.6 20.8 81 2.3 SE 4 6 2 3 1013.2 1013.1 -
29/09:30pm 23.9 27.6 21.4 86 1.6 SE 4 4 2 2 1013.3 1013.2 -
29/09:00pm 24.0 28.0 21.3 85 1.8 SE 2 6 1 3 1013.1 1013.0 0.0
29/08:30pm 24.3 27.8 21.8 86 1.7 E 6 7 3 4 1012.7 1012.6 -
29/08:00pm 23.7 27.8 20.8 84 1.9 CALM 0 2 0 1 1012.5 1012.4 -
29/07:30pm 24.0 28.2 20.9 83 2.0 CALM 0 0 0 0 1012.5 1012.4 -
29/07:00pm 24.4 28.1 20.7 80 2.4 NE 2 4 1 2 1012.5 1012.4 -
29/06:30pm 25.3 29.6 21.2 78 2.7 CALM 0 0 0 0 1012.2 1012.1 -
29/06:00pm 26.7 30.0 20.8 70 3.9 NE 4 7 2 4 1011.9 1011.8 -
29/05:30pm 27.9 29.9 19.9 61 5.2 ENE 9 13 5 7 1011.5 1011.4 -
29/05:00pm 29.1 31.0 19.7 57 6.1 ENE 9 13 5 7 1011.1 1011.0 -
29/04:30pm 29.8 31.3 18.9 52 7.1 NE 9 17 5 9 1010.8 1010.7 -
29/03:30pm 30.3 31.2 19.3 51 7.2 NE 13 - 7 - - 1010.2 -
29/03:00pm 30.9 32.1 19.9 52 7.3 ENE 13 - 7 - - 1010.0 -
29/02:30pm 31.3 - 20.9 54 7.0 - - - - - - 1010.2 -
29/12:30pm 29.9 32.1 21.8 62 5.5 ESE 13 24 7 13 1011.9 1011.8 0.0
29/12:00pm 29.9 32.3 21.6 61 5.6 E 11 20 6 11 1012.2 1012.1 0.0
29/11:30am 29.9 32.3 22.3 63 5.2 E 13 22 7 12 1012.5 1012.4 0.0
29/11:00am 29.2 30.8 21.4 63 5.2 E 15 24 8 13 1013.0 1012.9 0.0
29/10:30am 28.4 31.5 22.2 69 4.2 E 9 13 5 7 1013.4 1013.3 0.0
29/10:00am 28.3 29.7 21.8 68 4.4 E 17 22 9 12 1013.1 1013.0 0.0
29/09:30am 27.3 30.5 22.3 74 3.4 ESE 9 17 5 9 1012.9 1012.8 0.0
29/09:00am 26.9 29.7 22.3 76 3.1 ESE 11 20 6 11 1012.4 1012.3 2.2
29/08:30am 25.9 28.6 22.2 80 2.5 ESE 11 19 6 10 1012.3 1012.2 2.0
29/08:00am 25.1 28.4 21.8 82 2.2 SE 7 13 4 7 1012.0 1011.9 2.0
29/07:30am 24.5 28.1 22.0 86 1.7 SE 6 7 3 4 1011.7 1011.6 2.0
29/07:00am 24.4 28.4 22.1 87 1.5 SE 4 7 2 4 1011.5 1011.4 2.0
29/06:30am 24.4 28.4 22.7 90 1.1 SE 6 9 3 5 1011.1 1011.0 2.0
29/06:00am 24.4 29.2 22.8 91 1.1 SSE 2 4 1 2 1011.0 1010.9 2.0
29/05:30am 24.4 28.8 22.8 91 1.1 SE 4 6 2 3 1010.8 1010.7 2.0
29/05:00am 24.3 29.2 23.1 93 0.8 E 2 6 1 3 1010.9 1010.8 2.0
29/04:30am 24.6 28.8 23.2 92 0.9 SE 6 7 3 4 1010.9 1010.8 2.0
29/04:00am 23.9 29.1 22.9 94 0.7 CALM 0 2 0 1 1010.9 1010.8 2.0
29/03:30am 24.2 28.4 23.2 94 0.7 SSE 6 7 3 4 1010.7 1010.6 2.0
29/03:00am 23.8 29.0 22.8 94 0.7 CALM 0 0 0 0 1011.1 1011.0 2.0
29/02:30am 23.9 28.4 22.9 94 0.7 SSE 4 7 2 4 1011.3 1011.2 2.0
29/02:00am 23.9 29.2 23.0 95 0.6 CALM 0 0 0 0 1011.4 1011.3 2.0
29/01:30am 23.8 29.1 23.0 95 0.5 CALM 0 0 0 0 1011.7 1011.6 2.0
29/01:00am 23.9 28.8 23.0 95 0.6 SSE 2 6 1 3 1011.8 1011.7 2.0
29/12:30am 23.9 28.8 23.0 95 0.6 ENE 2 4 1 2 1011.9 1011.8 2.0
29/12:00am 23.9 29.2 23.0 95 0.6 CALM 0 0 0 0 1012.3 1012.2 2.0
 
Date/Time
CST
Temp
°C
App
Temp
°C
Dew
Point
°C
Rel
Hum
%
Delta-T
°C
Wind Press
QNH
hPa
Press
MSL
hPa
Rain since
9am
mm
Dir  Spd
km/h
Gust
km/h
Spd
kts
Gust
kts
28/11:30pm 23.8 29.1 23.0 95 0.5 CALM 0 0 0 0 1012.5 1012.4 2.0
28/11:00pm 23.8 29.0 22.8 94 0.7 CALM 0 0 0 0 1012.7 1012.6 2.0
28/10:30pm 23.9 28.6 22.7 93 0.8 SE 2 4 1 2 1012.8 1012.7 1.8
28/10:00pm 24.2 28.4 22.5 90 1.1 E 4 6 2 3 1013.1 1013.0 1.0
28/09:30pm 24.3 29.0 22.7 91 1.1 SE 2 6 1 3 1013.3 1013.2 0.8
28/09:00pm 24.6 29.7 22.7 89 1.3 CALM 0 0 0 0 1013.3 1013.2 0.8
28/08:30pm 24.7 29.0 22.6 88 1.4 SE 4 6 2 3 1013.0 1012.9 0.8
28/08:00pm 24.8 29.1 22.7 88 1.4 SE 4 6 2 3 1012.7 1012.6 0.8
28/07:30pm 24.8 29.1 22.7 88 1.4 SE 4 6 2 3 1012.3 1012.2 0.8
28/07:00pm 24.9 29.3 22.8 88 1.4 SE 4 6 2 3 1011.8 1011.7 0.8
28/06:30pm 25.0 29.2 22.5 86 1.7 SE 4 6 2 3 1011.4 1011.3 0.8
28/06:00pm 25.3 29.3 22.8 86 1.7 SE 6 7 3 4 1011.1 1011.0 0.8
28/05:30pm 25.5 30.3 22.8 85 1.8 SSE 2 6 1 3 1011.0 1010.9 0.8
28/05:00pm 25.5 30.1 22.4 83 2.1 SE 2 4 1 2 1010.7 1010.6 0.8
28/04:30pm 25.4 29.1 22.3 83 2.1 ESE 6 9 3 5 1010.6 1010.5 0.8
28/04:00pm 25.4 29.3 22.9 86 1.7 E 7 11 4 6 1010.3 1010.2 0.8
28/03:30pm 25.2 29.0 22.7 86 1.7 ESE 7 9 4 5 1010.3 1010.2 0.8
28/03:00pm 25.0 29.8 22.9 88 1.4 E 2 4 1 2 1010.7 1010.6 0.8
28/02:30pm 24.8 29.1 22.7 88 1.4 E 4 7 2 4 1010.7 1010.6 0.8
28/02:00pm 25.1 28.6 22.2 84 1.9 E 7 13 4 7 1011.1 1011.0 0.2
28/01:30pm 25.0 28.3 21.9 83 2.1 ESE 7 13 4 7 1011.6 1011.5 0.2
28/01:00pm 25.0 28.6 22.1 84 1.9 E 6 9 3 5 1012.0 1011.9 0.2
28/12:30pm 25.0 28.0 21.9 83 2.1 E 9 17 5 9 1012.2 1012.1 0.2
28/12:00pm 24.5 27.7 21.6 84 1.9 E 7 11 4 6 1012.7 1012.6 0.2
28/11:30am 24.3 27.8 21.8 86 1.7 E 6 9 3 5 1013.0 1012.9 0.2
28/11:00am 23.9 26.8 21.8 88 1.4 E 9 13 5 7 1012.9 1012.8 0.2
28/10:30am 23.9 26.7 21.6 87 1.5 E 9 15 5 8 1013.1 1013.0 0.2
28/10:00am 23.9 26.4 21.8 88 1.4 E 11 15 6 8 1013.0 1012.9 0.0
28/09:30am 23.7 27.3 22.3 92 0.9 E 7 11 4 6 1012.8 1012.7 0.0
28/09:00am 23.6 27.4 22.4 93 0.8 ESE 6 11 3 6 1012.6 1012.5 191.6
28/08:30am 23.8 27.5 22.6 93 0.8 ENE 7 19 4 10 1013.2 1013.1 191.2
28/08:00am 23.9 27.3 22.7 93 0.8 E 9 13 5 7 1012.5 1012.4 191.0
28/07:30am 23.9 27.0 22.9 94 0.7 E 11 19 6 10 1011.5 1011.4 191.0
28/07:00am 23.8 26.1 22.8 94 0.7 E 15 28 8 15 1011.1 1011.0 190.8
28/06:30am 24.0 26.4 23.0 94 0.7 E 15 26 8 14 1010.8 1010.7 190.6
28/06:00am 24.0 27.2 23.1 95 0.6 ENE 11 15 6 8 1011.1 1011.0 189.4
28/05:30am 24.2 27.5 23.2 94 0.7 ESE 11 17 6 9 1010.4 1010.3 189.2
28/05:00am 24.2 28.3 23.3 95 0.6 E 7 13 4 7 1010.3 1010.2 189.2
28/04:30am 24.3 28.5 23.4 95 0.6 E 7 15 4 8 1010.1 1010.0 189.0
28/04:00am 24.4 27.9 23.5 95 0.6 E 11 17 6 9 1010.1 1010.0 188.4
28/03:30am 24.4 28.4 23.7 96 0.5 E 9 20 5 11 1010.1 1010.0 188.4
28/03:00am 24.3 28.6 23.6 96 0.5 ENE 7 9 4 5 1010.2 1010.1 188.4
28/02:30am 24.2 28.0 23.5 96 0.5 E 9 19 5 10 1010.1 1010.0 187.6
28/02:00am 24.0 28.3 23.3 96 0.5 E 6 9 3 5 1010.5 1010.4 187.4
28/01:30am 23.9 28.1 23.2 96 0.5 ESE 6 9 3 5 1010.5 1010.4 184.8
28/01:00am 23.9 27.2 23.2 96 0.5 E 11 20 6 11 1010.8 1010.7 182.8
28/12:30am 24.0 27.0 23.3 96 0.5 E 13 22 7 12 1010.9 1010.8 180.6
28/12:00am 24.0 28.7 23.3 96 0.5 ENE 4 11 2 6 1011.3 1011.2 173.0
 
Date/Time
CST
Temp
°C
App
Temp
°C
Dew
Point
°C
Rel
Hum
%
Delta-T
°C
Wind Press
QNH
hPa
Press
MSL
hPa
Rain since
9am
mm
Dir  Spd
km/h
Gust
km/h
Spd
kts
Gust
kts
27/11:30pm 24.1 27.0 23.2 95 0.6 ESE 13 19 7 10 1011.2 1011.1 170.0
27/11:00pm 24.5 28.1 23.8 96 0.5 ENE 11 20 6 11 1011.5 1011.4 158.6
27/10:30pm 24.6 27.8 23.7 95 0.6 ENE 13 20 7 11 1011.2 1011.1 143.6
27/10:00pm 24.6 26.7 23.7 95 0.6 ENE 19 43 10 23 1010.9 1010.8 135.0
27/09:30pm 24.8 29.4 24.1 96 0.5 ENE 7 17 4 9 1010.8 1010.7 131.0
27/09:00pm 24.5 28.9 23.8 96 0.5 ENE 7 13 4 7 1010.5 1010.4 120.8
27/08:30pm 24.3 28.6 23.6 96 0.5 NE 7 19 4 10 1010.4 1010.3 116.4
27/08:00pm 24.5 28.5 23.8 96 0.5 ENE 9 19 5 10 1009.9 1009.8 106.2
27/07:30pm 24.6 28.9 23.7 95 0.6 ENE 7 13 4 7 1009.7 1009.6 93.6
27/07:00pm 24.9 27.9 24.0 95 0.6 ENE 15 26 8 14 1009.2 1009.1 83.6
27/06:30pm 24.9 27.7 23.7 93 0.8 ENE 15 22 8 12 1008.6 1008.5 78.2
27/06:00pm 24.9 28.1 23.7 93 0.8 E 13 20 7 11 1008.3 1008.2 78.2
27/05:30pm 25.2 29.1 24.2 94 0.7 ENE 11 22 6 12 1007.9 1007.8 78.0
27/05:00pm 25.2 28.0 24.3 95 0.6 E 17 30 9 16 1007.7 1007.6 78.0
27/04:30pm 25.2 27.6 24.3 95 0.6 ENE 19 28 10 15 1007.5 1007.4 77.6
27/04:00pm 25.1 27.5 24.2 95 0.6 ENE 19 30 10 16 1007.0 1006.9 75.8
27/03:30pm 24.7 28.5 24.0 96 0.5 E 11 22 6 12 1007.2 1007.1 73.8
27/03:00pm 24.6 27.9 23.9 96 0.5 ENE 13 22 7 12 1007.4 1007.3 54.8

Latest Capital City Observations: Canberra | Sydney | Melbourne | Brisbane | Adelaide | Perth | Hobart | Darwin

Other Formats:

Comma delimited format used in spreadsheet applications
http://www.bom.gov.au/fwo/IDD60901/IDD60901.94119.axf

JavaScript Object Notation format (JSON) in row-major order
http://www.bom.gov.au/fwo/IDD60901/IDD60901.94119.json